sensor_id;sensor_type;location;lat;lon;timestamp;P1;durP1;ratioP1;P2;durP2;ratioP2
25163;SDS011;13440;50.860;13.662;2023-06-10T00:02:15;14.75;;;11.38;;
25163;SDS011;13440;50.860;13.662;2023-06-10T00:04:42;12.13;;;10.93;;
25163;SDS011;13440;50.860;13.662;2023-06-10T00:07:07;12.57;;;11.30;;
25163;SDS011;13440;50.860;13.662;2023-06-10T00:09:34;14.52;;;11.68;;
25163;SDS011;13440;50.860;13.662;2023-06-10T00:12:01;13.90;;;11.07;;
25163;SDS011;13440;50.860;13.662;2023-06-10T00:14:26;13.68;;;10.90;;
25163;SDS011;13440;50.860;13.662;2023-06-10T00:16:52;12.73;;;11.07;;
25163;SDS011;13440;50.860;13.662;2023-06-10T00:19:17;15.07;;;11.93;;
25163;SDS011;13440;50.860;13.662;2023-06-10T00:21:43;12.82;;;10.57;;
25163;SDS011;13440;50.860;13.662;2023-06-10T00:24:10;15.18;;;11.55;;
25163;SDS011;13440;50.860;13.662;2023-06-10T00:26:37;14.48;;;11.68;;
25163;SDS011;13440;50.860;13.662;2023-06-10T00:29:03;13.00;;;11.27;;
25163;SDS011;13440;50.860;13.662;2023-06-10T00:31:28;11.63;;;10.43;;
25163;SDS011;13440;50.860;13.662;2023-06-10T00:33:53;12.23;;;10.90;;
25163;SDS011;13440;50.860;13.662;2023-06-10T00:36:19;12.48;;;10.77;;
25163;SDS011;13440;50.860;13.662;2023-06-10T00:38:44;13.38;;;11.98;;
25163;SDS011;13440;50.860;13.662;2023-06-10T00:41:10;12.60;;;11.30;;
25163;SDS011;13440;50.860;13.662;2023-06-10T00:43:35;14.05;;;11.48;;
25163;SDS011;13440;50.860;13.662;2023-06-10T00:46:01;13.55;;;12.15;;
25163;SDS011;13440;50.860;13.662;2023-06-10T00:48:28;12.90;;;11.60;;
25163;SDS011;13440;50.860;13.662;2023-06-10T00:50:55;12.60;;;11.40;;
25163;SDS011;13440;50.860;13.662;2023-06-10T00:53:21;12.18;;;10.90;;
25163;SDS011;13440;50.860;13.662;2023-06-10T00:55:47;12.27;;;11.00;;
25163;SDS011;13440;50.860;13.662;2023-06-10T00:58:12;14.43;;;11.52;;
25163;SDS011;13440;50.860;13.662;2023-06-10T01:00:38;13.07;;;11.75;;
25163;SDS011;13440;50.860;13.662;2023-06-10T01:03:04;13.38;;;11.98;;
25163;SDS011;13440;50.860;13.662;2023-06-10T01:05:33;14.85;;;11.88;;
25163;SDS011;13440;50.860;13.662;2023-06-10T01:08:11;13.25;;;11.48;;
25163;SDS011;13440;50.860;13.662;2023-06-10T01:10:50;13.40;;;10.93;;
25163;SDS011;13440;50.860;13.662;2023-06-10T01:13:20;12.32;;;10.60;;
25163;SDS011;13440;50.860;13.662;2023-06-10T01:15:50;12.30;;;11.07;;
25163;SDS011;13440;50.860;13.662;2023-06-10T01:18:15;13.05;;;11.20;;
25163;SDS011;13440;50.860;13.662;2023-06-10T01:20:42;12.70;;;11.32;;
25163;SDS011;13440;50.860;13.662;2023-06-10T01:23:08;13.00;;;11.57;;
25163;SDS011;13440;50.860;13.662;2023-06-10T01:25:37;12.35;;;11.13;;
25163;SDS011;13440;50.860;13.662;2023-06-10T01:28:19;13.02;;;10.98;;
25163;SDS011;13440;50.860;13.662;2023-06-10T01:33:18;11.35;;;10.27;;
25163;SDS011;13440;50.860;13.662;2023-06-10T01:35:49;13.63;;;11.02;;
25163;SDS011;13440;50.860;13.662;2023-06-10T01:38:15;13.52;;;10.88;;
25163;SDS011;13440;50.860;13.662;2023-06-10T01:40:41;15.45;;;11.70;;
25163;SDS011;13440;50.860;13.662;2023-06-10T01:43:07;13.05;;;11.68;;
25163;SDS011;13440;50.860;13.662;2023-06-10T01:45:33;12.32;;;11.02;;
25163;SDS011;13440;50.860;13.662;2023-06-10T01:47:58;12.30;;;11.05;;
25163;SDS011;13440;50.860;13.662;2023-06-10T01:50:25;12.02;;;10.82;;
25163;SDS011;13440;50.860;13.662;2023-06-10T01:52:50;13.35;;;11.52;;
25163;SDS011;13440;50.860;13.662;2023-06-10T01:55:15;12.13;;;10.82;;
25163;SDS011;13440;50.860;13.662;2023-06-10T01:57:41;11.63;;;10.52;;
25163;SDS011;13440;50.860;13.662;2023-06-10T02:00:06;12.85;;;11.43;;
25163;SDS011;13440;50.860;13.662;2023-06-10T02:02:40;14.97;;;11.17;;
25163;SDS011;13440;50.860;13.662;2023-06-10T02:05:05;12.07;;;10.98;;
25163;SDS011;13440;50.860;13.662;2023-06-10T02:07:31;14.43;;;10.93;;
25163;SDS011;13440;50.860;13.662;2023-06-10T02:09:56;12.50;;;11.25;;
25163;SDS011;13440;50.860;13.662;2023-06-10T02:12:22;12.13;;;10.90;;
25163;SDS011;13440;50.860;13.662;2023-06-10T02:14:48;12.60;;;11.30;;
25163;SDS011;13440;50.860;13.662;2023-06-10T02:17:13;12.05;;;10.82;;
25163;SDS011;13440;50.860;13.662;2023-06-10T02:19:41;12.85;;;10.65;;
25163;SDS011;13440;50.860;13.662;2023-06-10T02:22:09;12.57;;;11.27;;
25163;SDS011;13440;50.860;13.662;2023-06-10T02:24:37;11.93;;;10.73;;
25163;SDS011;13440;50.860;13.662;2023-06-10T02:27:04;13.20;;;11.85;;
25163;SDS011;13440;50.860;13.662;2023-06-10T02:29:33;12.65;;;11.45;;
25163;SDS011;13440;50.860;13.662;2023-06-10T02:31:59;13.18;;;11.55;;
25163;SDS011;13440;50.860;13.662;2023-06-10T02:34:24;13.73;;;11.70;;
25163;SDS011;13440;50.860;13.662;2023-06-10T02:36:51;12.23;;;11.02;;
25163;SDS011;13440;50.860;13.662;2023-06-10T02:39:18;13.85;;;11.38;;
25163;SDS011;13440;50.860;13.662;2023-06-10T02:41:45;13.30;;;11.35;;
25163;SDS011;13440;50.860;13.662;2023-06-10T02:44:10;12.95;;;11.65;;
25163;SDS011;13440;50.860;13.662;2023-06-10T02:46:36;12.40;;;11.18;;
25163;SDS011;13440;50.860;13.662;2023-06-10T02:49:03;13.75;;;11.90;;
25163;SDS011;13440;50.860;13.662;2023-06-10T02:51:28;12.07;;;10.85;;
25163;SDS011;13440;50.860;13.662;2023-06-10T02:53:58;12.98;;;11.57;;
25163;SDS011;13440;50.860;13.662;2023-06-10T02:56:24;13.27;;;11.88;;
25163;SDS011;13440;50.860;13.662;2023-06-10T02:58:51;13.02;;;11.68;;
25163;SDS011;13440;50.860;13.662;2023-06-10T03:01:17;12.77;;;11.48;;
25163;SDS011;13440;50.860;13.662;2023-06-10T03:03:52;15.43;;;11.93;;
25163;SDS011;13440;50.860;13.662;2023-06-10T03:06:18;12.55;;;11.35;;
25163;SDS011;13440;50.860;13.662;2023-06-10T03:08:44;13.35;;;11.65;;
25163;SDS011;13440;50.860;13.662;2023-06-10T03:11:14;13.52;;;12.23;;
25163;SDS011;13440;50.860;13.662;2023-06-10T03:13:40;13.00;;;11.68;;
25163;SDS011;13440;50.860;13.662;2023-06-10T03:16:07;12.85;;;11.55;;
25163;SDS011;13440;50.860;13.662;2023-06-10T03:18:36;13.00;;;11.60;;
25163;SDS011;13440;50.860;13.662;2023-06-10T03:21:01;13.98;;;11.63;;
25163;SDS011;13440;50.860;13.662;2023-06-10T03:23:28;12.88;;;11.32;;
25163;SDS011;13440;50.860;13.662;2023-06-10T03:25:54;12.30;;;11.00;;
25163;SDS011;13440;50.860;13.662;2023-06-10T03:28:23;12.60;;;11.38;;
25163;SDS011;13440;50.860;13.662;2023-06-10T03:30:50;13.73;;;12.32;;
25163;SDS011;13440;50.860;13.662;2023-06-10T03:33:17;13.57;;;12.18;;
25163;SDS011;13440;50.860;13.662;2023-06-10T03:35:43;13.52;;;11.90;;
25163;SDS011;13440;50.860;13.662;2023-06-10T03:38:10;14.95;;;11.50;;
25163;SDS011;13440;50.860;13.662;2023-06-10T03:40:36;13.50;;;11.10;;
25163;SDS011;13440;50.860;13.662;2023-06-10T03:43:02;12.50;;;11.30;;
25163;SDS011;13440;50.860;13.662;2023-06-10T03:45:28;12.52;;;11.20;;
25163;SDS011;13440;50.860;13.662;2023-06-10T03:47:54;12.45;;;11.15;;
25163;SDS011;13440;50.860;13.662;2023-06-10T03:50:24;11.73;;;10.63;;
25163;SDS011;13440;50.860;13.662;2023-06-10T03:52:50;12.85;;;11.55;;
25163;SDS011;13440;50.860;13.662;2023-06-10T03:55:18;12.35;;;11.05;;
25163;SDS011;13440;50.860;13.662;2023-06-10T03:57:47;11.80;;;10.70;;
25163;SDS011;13440;50.860;13.662;2023-06-10T04:00:14;11.48;;;10.38;;
25163;SDS011;13440;50.860;13.662;2023-06-10T04:02:40;12.32;;;11.02;;
25163;SDS011;13440;50.860;13.662;2023-06-10T04:05:23;12.30;;;11.05;;
25163;SDS011;13440;50.860;13.662;2023-06-10T04:07:48;13.20;;;10.15;;
25163;SDS011;13440;50.860;13.662;2023-06-10T04:10:14;14.00;;;10.77;;
25163;SDS011;13440;50.860;13.662;2023-06-10T04:12:40;11.43;;;10.27;;
25163;SDS011;13440;50.860;13.662;2023-06-10T04:15:06;12.20;;;10.95;;
25163;SDS011;13440;50.860;13.662;2023-06-10T04:17:32;11.50;;;10.20;;
25163;SDS011;13440;50.860;13.662;2023-06-10T04:19:57;11.23;;;10.13;;
25163;SDS011;13440;50.860;13.662;2023-06-10T04:22:24;11.32;;;10.20;;
25163;SDS011;13440;50.860;13.662;2023-06-10T04:24:51;11.48;;;9.93;;
25163;SDS011;13440;50.860;13.662;2023-06-10T04:27:17;10.80;;;9.80;;
25163;SDS011;13440;50.860;13.662;2023-06-10T04:29:43;10.52;;;9.45;;
25163;SDS011;13440;50.860;13.662;2023-06-10T04:32:08;12.50;;;9.85;;
25163;SDS011;13440;50.860;13.662;2023-06-10T04:34:35;10.43;;;9.52;;
25163;SDS011;13440;50.860;13.662;2023-06-10T04:37:01;10.23;;;9.32;;
25163;SDS011;13440;50.860;13.662;2023-06-10T04:39:27;9.18;;;8.38;;
25163;SDS011;13440;50.860;13.662;2023-06-10T04:41:52;9.43;;;8.45;;
25163;SDS011;13440;50.860;13.662;2023-06-10T04:44:18;9.50;;;8.60;;
25163;SDS011;13440;50.860;13.662;2023-06-10T04:46:43;9.60;;;8.60;;
25163;SDS011;13440;50.860;13.662;2023-06-10T04:49:09;9.90;;;8.40;;
25163;SDS011;13440;50.860;13.662;2023-06-10T04:51:34;8.15;;;7.45;;
25163;SDS011;13440;50.860;13.662;2023-06-10T04:54:00;8.15;;;7.25;;
25163;SDS011;13440;50.860;13.662;2023-06-10T04:56:28;11.73;;;6.50;;
25163;SDS011;13440;50.860;13.662;2023-06-10T04:58:55;7.38;;;6.70;;
25163;SDS011;13440;50.860;13.662;2023-06-10T05:01:20;7.32;;;6.57;;
25163;SDS011;13440;50.860;13.662;2023-06-10T05:03:46;7.38;;;6.45;;
25163;SDS011;13440;50.860;13.662;2023-06-10T05:06:11;6.82;;;6.15;;
25163;SDS011;13440;50.860;13.662;2023-06-10T05:08:36;6.85;;;6.20;;
25163;SDS011;13440;50.860;13.662;2023-06-10T05:11:02;6.40;;;5.72;;
25163;SDS011;13440;50.860;13.662;2023-06-10T05:13:27;6.90;;;6.22;;
25163;SDS011;13440;50.860;13.662;2023-06-10T05:15:52;6.03;;;5.45;;
25163;SDS011;13440;50.860;13.662;2023-06-10T05:18:18;8.02;;;5.55;;
25163;SDS011;13440;50.860;13.662;2023-06-10T05:20:43;5.15;;;4.65;;
25163;SDS011;13440;50.860;13.662;2023-06-10T05:23:09;5.22;;;4.72;;
25163;SDS011;13440;50.860;13.662;2023-06-10T05:25:34;5.65;;;5.13;;
25163;SDS011;13440;50.860;13.662;2023-06-10T05:28:00;5.55;;;5.05;;
25163;SDS011;13440;50.860;13.662;2023-06-10T05:30:25;5.18;;;4.78;;
25163;SDS011;13440;50.860;13.662;2023-06-10T05:32:51;5.60;;;4.88;;
25163;SDS011;13440;50.860;13.662;2023-06-10T05:35:17;5.13;;;4.63;;
25163;SDS011;13440;50.860;13.662;2023-06-10T05:37:43;6.90;;;5.03;;
25163;SDS011;13440;50.860;13.662;2023-06-10T05:40:09;4.80;;;4.40;;
25163;SDS011;13440;50.860;13.662;2023-06-10T05:42:35;5.07;;;4.60;;
25163;SDS011;13440;50.860;13.662;2023-06-10T05:45:00;5.20;;;4.70;;
25163;SDS011;13440;50.860;13.662;2023-06-10T05:47:26;4.70;;;4.30;;
25163;SDS011;13440;50.860;13.662;2023-06-10T05:49:51;4.97;;;4.57;;
25163;SDS011;13440;50.860;13.662;2023-06-10T05:52:17;6.10;;;5.00;;
25163;SDS011;13440;50.860;13.662;2023-06-10T05:54:43;5.00;;;3.85;;
25163;SDS011;13440;50.860;13.662;2023-06-10T05:57:08;5.35;;;4.22;;
25163;SDS011;13440;50.860;13.662;2023-06-10T05:59:33;6.45;;;4.32;;
25163;SDS011;13440;50.860;13.662;2023-06-10T06:01:59;5.03;;;4.47;;
25163;SDS011;13440;50.860;13.662;2023-06-10T06:04:24;5.25;;;4.20;;
25163;SDS011;13440;50.860;13.662;2023-06-10T06:06:50;4.78;;;4.15;;
25163;SDS011;13440;50.860;13.662;2023-06-10T06:09:15;6.68;;;4.80;;
25163;SDS011;13440;50.860;13.662;2023-06-10T06:11:40;4.45;;;3.90;;
25163;SDS011;13440;50.860;13.662;2023-06-10T06:14:06;6.97;;;4.07;;
25163;SDS011;13440;50.860;13.662;2023-06-10T06:16:31;4.70;;;3.90;;
25163;SDS011;13440;50.860;13.662;2023-06-10T06:18:57;5.63;;;4.60;;
25163;SDS011;13440;50.860;13.662;2023-06-10T06:21:22;4.28;;;3.83;;
25163;SDS011;13440;50.860;13.662;2023-06-10T06:23:48;4.88;;;4.35;;
25163;SDS011;13440;50.860;13.662;2023-06-10T06:26:13;5.78;;;4.70;;
25163;SDS011;13440;50.860;13.662;2023-06-10T06:28:38;9.20;;;4.75;;
25163;SDS011;13440;50.860;13.662;2023-06-10T06:31:04;5.03;;;4.63;;
25163;SDS011;13440;50.860;13.662;2023-06-10T06:33:29;5.55;;;4.85;;
25163;SDS011;13440;50.860;13.662;2023-06-10T06:35:55;5.15;;;4.75;;
25163;SDS011;13440;50.860;13.662;2023-06-10T06:38:20;5.65;;;5.13;;
25163;SDS011;13440;50.860;13.662;2023-06-10T06:40:46;5.70;;;5.10;;
25163;SDS011;13440;50.860;13.662;2023-06-10T06:43:11;7.53;;;5.60;;
25163;SDS011;13440;50.860;13.662;2023-06-10T06:45:57;6.13;;;5.40;;
25163;SDS011;13440;50.860;13.662;2023-06-10T06:48:23;7.40;;;5.03;;
25163;SDS011;13440;50.860;13.662;2023-06-10T06:50:48;6.95;;;5.40;;
25163;SDS011;13440;50.860;13.662;2023-06-10T06:53:14;7.43;;;6.32;;
25163;SDS011;13440;50.860;13.662;2023-06-10T06:55:39;5.35;;;4.85;;
25163;SDS011;13440;50.860;13.662;2023-06-10T06:58:05;6.00;;;5.40;;
25163;SDS011;13440;50.860;13.662;2023-06-10T07:00:31;9.85;;;6.18;;
25163;SDS011;13440;50.860;13.662;2023-06-10T07:02:56;7.80;;;5.70;;
25163;SDS011;13440;50.860;13.662;2023-06-10T07:05:22;9.05;;;5.75;;
25163;SDS011;13440;50.860;13.662;2023-06-10T07:07:48;7.30;;;6.47;;
25163;SDS011;13440;50.860;13.662;2023-06-10T07:10:19;6.45;;;5.80;;
25163;SDS011;13440;50.860;13.662;2023-06-10T07:12:46;7.20;;;5.97;;
25163;SDS011;13440;50.860;13.662;2023-06-10T07:15:12;7.22;;;6.57;;
25163;SDS011;13440;50.860;13.662;2023-06-10T07:17:37;7.38;;;6.57;;
25163;SDS011;13440;50.860;13.662;2023-06-10T07:20:03;7.93;;;6.43;;
25163;SDS011;13440;50.860;13.662;2023-06-10T07:22:29;7.97;;;7.07;;
25163;SDS011;13440;50.860;13.662;2023-06-10T07:24:54;11.00;;;6.40;;
25163;SDS011;13440;50.860;13.662;2023-06-10T07:27:20;7.38;;;6.55;;
25163;SDS011;13440;50.860;13.662;2023-06-10T07:29:46;6.97;;;5.95;;
25163;SDS011;13440;50.860;13.662;2023-06-10T07:32:11;7.80;;;6.10;;
25163;SDS011;13440;50.860;13.662;2023-06-10T07:34:36;9.77;;;6.93;;
25163;SDS011;13440;50.860;13.662;2023-06-10T07:37:02;12.15;;;9.10;;
25163;SDS011;13440;50.860;13.662;2023-06-10T07:39:28;7.95;;;7.00;;
25163;SDS011;13440;50.860;13.662;2023-06-10T07:41:53;7.63;;;6.13;;
25163;SDS011;13440;50.860;13.662;2023-06-10T07:44:22;8.23;;;6.55;;
25163;SDS011;13440;50.860;13.662;2023-06-10T07:46:48;6.88;;;6.18;;
25163;SDS011;13440;50.860;13.662;2023-06-10T07:49:14;7.45;;;6.38;;
25163;SDS011;13440;50.860;13.662;2023-06-10T07:51:39;8.48;;;6.78;;
25163;SDS011;13440;50.860;13.662;2023-06-10T07:54:05;6.80;;;5.97;;
25163;SDS011;13440;50.860;13.662;2023-06-10T07:56:30;8.15;;;6.45;;
25163;SDS011;13440;50.860;13.662;2023-06-10T07:58:56;6.63;;;5.80;;
25163;SDS011;13440;50.860;13.662;2023-06-10T08:01:22;7.07;;;6.10;;
25163;SDS011;13440;50.860;13.662;2023-06-10T08:03:47;7.05;;;6.32;;
25163;SDS011;13440;50.860;13.662;2023-06-10T08:06:13;6.85;;;6.13;;
25163;SDS011;13440;50.860;13.662;2023-06-10T08:08:39;7.65;;;6.63;;
25163;SDS011;13440;50.860;13.662;2023-06-10T08:11:07;7.80;;;7.10;;
25163;SDS011;13440;50.860;13.662;2023-06-10T08:13:33;9.05;;;8.15;;
25163;SDS011;13440;50.860;13.662;2023-06-10T08:15:58;8.63;;;7.25;;
25163;SDS011;13440;50.860;13.662;2023-06-10T08:18:24;9.45;;;8.55;;
25163;SDS011;13440;50.860;13.662;2023-06-10T08:20:49;10.80;;;8.45;;
25163;SDS011;13440;50.860;13.662;2023-06-10T08:23:14;9.35;;;8.40;;
25163;SDS011;13440;50.860;13.662;2023-06-10T08:25:40;9.38;;;8.38;;
25163;SDS011;13440;50.860;13.662;2023-06-10T08:28:05;9.77;;;8.45;;
25163;SDS011;13440;50.860;13.662;2023-06-10T08:30:30;10.43;;;8.80;;
25163;SDS011;13440;50.860;13.662;2023-06-10T08:32:56;12.20;;;8.65;;
25163;SDS011;13440;50.860;13.662;2023-06-10T08:35:21;12.77;;;9.20;;
25163;SDS011;13440;50.860;13.662;2023-06-10T08:37:47;13.18;;;11.35;;
25163;SDS011;13440;50.860;13.662;2023-06-10T08:40:12;9.82;;;8.55;;
25163;SDS011;13440;50.860;13.662;2023-06-10T08:42:49;10.73;;;9.02;;
25163;SDS011;13440;50.860;13.662;2023-06-10T08:45:19;10.45;;;9.32;;
25163;SDS011;13440;50.860;13.662;2023-06-10T08:47:46;9.98;;;8.80;;
25163;SDS011;13440;50.860;13.662;2023-06-10T08:50:16;12.32;;;10.27;;
25163;SDS011;13440;50.860;13.662;2023-06-10T08:52:43;13.35;;;10.93;;
25163;SDS011;13440;50.860;13.662;2023-06-10T08:55:18;12.45;;;11.23;;
25163;SDS011;13440;50.860;13.662;2023-06-10T08:57:45;12.88;;;9.55;;
25163;SDS011;13440;50.860;13.662;2023-06-10T09:00:10;10.80;;;9.25;;
25163;SDS011;13440;50.860;13.662;2023-06-10T09:02:37;10.32;;;8.35;;
25163;SDS011;13440;50.860;13.662;2023-06-10T09:05:03;10.13;;;8.15;;
25163;SDS011;13440;50.860;13.662;2023-06-10T09:07:30;10.40;;;7.50;;
25163;SDS011;13440;50.860;13.662;2023-06-10T09:09:56;15.00;;;12.18;;
25163;SDS011;13440;50.860;13.662;2023-06-10T09:12:22;11.27;;;8.60;;
25163;SDS011;13440;50.860;13.662;2023-06-10T09:14:48;8.63;;;7.70;;
25163;SDS011;13440;50.860;13.662;2023-06-10T09:17:13;9.00;;;8.02;;
25163;SDS011;13440;50.860;13.662;2023-06-10T09:19:38;9.60;;;8.60;;
25163;SDS011;13440;50.860;13.662;2023-06-10T09:22:05;12.77;;;10.55;;
25163;SDS011;13440;50.860;13.662;2023-06-10T09:24:31;14.25;;;11.52;;
25163;SDS011;13440;50.860;13.662;2023-06-10T09:27:04;10.48;;;8.82;;
25163;SDS011;13440;50.860;13.662;2023-06-10T09:29:31;10.60;;;8.57;;
25163;SDS011;13440;50.860;13.662;2023-06-10T09:32:08;13.63;;;9.65;;
25163;SDS011;13440;50.860;13.662;2023-06-10T09:34:33;10.75;;;8.55;;
25163;SDS011;13440;50.860;13.662;2023-06-10T09:36:58;12.45;;;9.18;;
25163;SDS011;13440;50.860;13.662;2023-06-10T09:39:24;11.23;;;9.05;;
25163;SDS011;13440;50.860;13.662;2023-06-10T09:41:49;11.25;;;9.45;;
25163;SDS011;13440;50.860;13.662;2023-06-10T09:44:15;9.60;;;8.80;;
25163;SDS011;13440;50.860;13.662;2023-06-10T09:46:42;7.97;;;7.22;;
25163;SDS011;13440;50.860;13.662;2023-06-10T09:49:08;35.65;;;29.88;;
25163;SDS011;13440;50.860;13.662;2023-06-10T09:51:33;7.03;;;6.22;;
25163;SDS011;13440;50.860;13.662;2023-06-10T09:53:59;8.55;;;7.72;;
25163;SDS011;13440;50.860;13.662;2023-06-10T09:56:34;7.90;;;6.10;;
25163;SDS011;13440;50.860;13.662;2023-06-10T09:59:00;6.80;;;6.03;;
25163;SDS011;13440;50.860;13.662;2023-06-10T10:01:25;9.55;;;6.45;;
25163;SDS011;13440;50.860;13.662;2023-06-10T10:03:51;8.48;;;5.90;;
25163;SDS011;13440;50.860;13.662;2023-06-10T10:06:17;7.55;;;6.22;;
25163;SDS011;13440;50.860;13.662;2023-06-10T10:08:43;10.23;;;6.35;;
25163;SDS011;13440;50.860;13.662;2023-06-10T10:11:12;9.43;;;6.07;;
25163;SDS011;13440;50.860;13.662;2023-06-10T10:13:37;6.43;;;5.72;;
25163;SDS011;13440;50.860;13.662;2023-06-10T10:16:13;8.13;;;7.10;;
25163;SDS011;13440;50.860;13.662;2023-06-10T10:18:43;7.32;;;6.45;;
25163;SDS011;13440;50.860;13.662;2023-06-10T10:21:12;6.82;;;6.13;;
25163;SDS011;13440;50.860;13.662;2023-06-10T10:23:48;7.32;;;6.60;;
25163;SDS011;13440;50.860;13.662;2023-06-10T10:26:35;9.05;;;6.60;;
25163;SDS011;13440;50.860;13.662;2023-06-10T10:31:47;7.70;;;6.15;;
25163;SDS011;13440;50.860;13.662;2023-06-10T10:34:16;6.90;;;6.20;;
25163;SDS011;13440;50.860;13.662;2023-06-10T10:36:44;8.75;;;6.40;;
25163;SDS011;13440;50.860;13.662;2023-06-10T10:39:10;6.38;;;5.78;;
25163;SDS011;13440;50.860;13.662;2023-06-10T10:41:37;7.25;;;6.55;;
25163;SDS011;13440;50.860;13.662;2023-06-10T10:44:03;7.13;;;6.30;;
25163;SDS011;13440;50.860;13.662;2023-06-10T10:46:39;7.40;;;6.60;;
25163;SDS011;13440;50.860;13.662;2023-06-10T10:49:07;7.30;;;6.60;;
25163;SDS011;13440;50.860;13.662;2023-06-10T10:51:35;9.07;;;6.50;;
25163;SDS011;13440;50.860;13.662;2023-06-10T10:54:14;6.95;;;5.88;;
25163;SDS011;13440;50.860;13.662;2023-06-10T10:56:39;8.63;;;6.55;;
25163;SDS011;13440;50.860;13.662;2023-06-10T10:59:05;8.73;;;6.68;;
25163;SDS011;13440;50.860;13.662;2023-06-10T11:01:41;7.15;;;6.55;;
25163;SDS011;13440;50.860;13.662;2023-06-10T11:04:11;6.40;;;5.80;;
25163;SDS011;13440;50.860;13.662;2023-06-10T11:06:37;7.32;;;5.95;;
25163;SDS011;13440;50.860;13.662;2023-06-10T11:11:51;9.05;;;5.82;;
25163;SDS011;13440;50.860;13.662;2023-06-10T11:14:25;6.30;;;5.70;;
25163;SDS011;13440;50.860;13.662;2023-06-10T11:16:53;7.35;;;5.63;;
25163;SDS011;13440;50.860;13.662;2023-06-10T11:19:34;6.38;;;5.75;;
25163;SDS011;13440;50.860;13.662;2023-06-10T11:22:01;8.30;;;6.15;;
25163;SDS011;13440;50.860;13.662;2023-06-10T11:24:29;6.78;;;5.72;;
25163;SDS011;13440;50.860;13.662;2023-06-10T11:26:54;5.72;;;5.22;;
25163;SDS011;13440;50.860;13.662;2023-06-10T11:29:21;7.10;;;5.68;;
25163;SDS011;13440;50.860;13.662;2023-06-10T11:31:50;6.18;;;5.35;;
25163;SDS011;13440;50.860;13.662;2023-06-10T11:34:21;9.10;;;5.70;;
25163;SDS011;13440;50.860;13.662;2023-06-10T11:36:48;7.80;;;5.38;;
25163;SDS011;13440;50.860;13.662;2023-06-10T11:39:14;9.50;;;5.70;;
25163;SDS011;13440;50.860;13.662;2023-06-10T11:41:39;7.50;;;5.40;;
25163;SDS011;13440;50.860;13.662;2023-06-10T11:44:11;6.93;;;5.60;;
25163;SDS011;13440;50.860;13.662;2023-06-10T11:46:38;7.75;;;6.10;;
25163;SDS011;13440;50.860;13.662;2023-06-10T11:49:05;8.05;;;5.75;;
25163;SDS011;13440;50.860;13.662;2023-06-10T11:51:35;9.60;;;5.55;;
25163;SDS011;13440;50.860;13.662;2023-06-10T11:54:01;6.55;;;5.82;;
25163;SDS011;13440;50.860;13.662;2023-06-10T11:56:28;7.95;;;6.05;;
25163;SDS011;13440;50.860;13.662;2023-06-10T11:58:55;8.20;;;5.70;;
25163;SDS011;13440;50.860;13.662;2023-06-10T12:01:22;7.20;;;6.10;;
25163;SDS011;13440;50.860;13.662;2023-06-10T12:04:02;7.68;;;5.90;;
25163;SDS011;13440;50.860;13.662;2023-06-10T12:09:24;6.57;;;5.97;;
25163;SDS011;13440;50.860;13.662;2023-06-10T12:11:57;8.27;;;5.72;;
25163;SDS011;13440;50.860;13.662;2023-06-10T12:19:58;6.57;;;5.80;;
25163;SDS011;13440;50.860;13.662;2023-06-10T12:22:23;8.45;;;5.82;;
25163;SDS011;13440;50.860;13.662;2023-06-10T12:25:00;7.53;;;5.78;;
25163;SDS011;13440;50.860;13.662;2023-06-10T12:27:26;6.22;;;5.63;;
25163;SDS011;13440;50.860;13.662;2023-06-10T12:29:54;6.50;;;5.60;;
25163;SDS011;13440;50.860;13.662;2023-06-10T12:32:20;6.38;;;5.43;;
25163;SDS011;13440;50.860;13.662;2023-06-10T12:35:01;7.85;;;6.47;;
25163;SDS011;13440;50.860;13.662;2023-06-10T12:37:28;8.80;;;5.82;;
25163;SDS011;13440;50.860;13.662;2023-06-10T12:39:53;11.73;;;6.28;;
25163;SDS011;13440;50.860;13.662;2023-06-10T12:42:21;6.70;;;5.28;;
25163;SDS011;13440;50.860;13.662;2023-06-10T12:44:47;6.47;;;5.25;;
25163;SDS011;13440;50.860;13.662;2023-06-10T12:47:18;10.27;;;5.40;;
25163;SDS011;13440;50.860;13.662;2023-06-10T12:49:43;6.80;;;5.00;;
25163;SDS011;13440;50.860;13.662;2023-06-10T12:52:08;6.78;;;5.00;;
25163;SDS011;13440;50.860;13.662;2023-06-10T12:54:34;10.00;;;5.78;;
25163;SDS011;13440;50.860;13.662;2023-06-10T12:56:59;5.90;;;5.30;;
25163;SDS011;13440;50.860;13.662;2023-06-10T12:59:25;10.20;;;6.30;;
25163;SDS011;13440;50.860;13.662;2023-06-10T13:01:52;8.20;;;5.53;;
25163;SDS011;13440;50.860;13.662;2023-06-10T13:04:18;6.45;;;5.35;;
25163;SDS011;13440;50.860;13.662;2023-06-10T13:06:43;15.20;;;6.25;;
25163;SDS011;13440;50.860;13.662;2023-06-10T13:09:09;6.50;;;5.28;;
25163;SDS011;13440;50.860;13.662;2023-06-10T13:11:35;7.05;;;5.95;;
25163;SDS011;13440;50.860;13.662;2023-06-10T13:14:01;8.13;;;5.40;;
25163;SDS011;13440;50.860;13.662;2023-06-10T13:16:27;7.00;;;5.28;;
25163;SDS011;13440;50.860;13.662;2023-06-10T13:18:53;9.15;;;5.28;;
25163;SDS011;13440;50.860;13.662;2023-06-10T13:21:19;9.05;;;5.32;;
25163;SDS011;13440;50.860;13.662;2023-06-10T13:23:45;5.95;;;5.35;;
25163;SDS011;13440;50.860;13.662;2023-06-10T13:26:13;7.45;;;5.43;;
25163;SDS011;13440;50.860;13.662;2023-06-10T13:28:38;7.15;;;5.53;;
25163;SDS011;13440;50.860;13.662;2023-06-10T13:31:04;9.73;;;6.05;;
25163;SDS011;13440;50.860;13.662;2023-06-10T13:33:30;7.72;;;5.53;;
25163;SDS011;13440;50.860;13.662;2023-06-10T13:35:55;8.88;;;5.82;;
25163;SDS011;13440;50.860;13.662;2023-06-10T13:38:20;9.10;;;6.32;;
25163;SDS011;13440;50.860;13.662;2023-06-10T13:40:46;6.38;;;5.68;;
25163;SDS011;13440;50.860;13.662;2023-06-10T13:43:11;6.68;;;5.35;;
25163;SDS011;13440;50.860;13.662;2023-06-10T13:45:38;6.10;;;5.50;;
25163;SDS011;13440;50.860;13.662;2023-06-10T13:48:03;7.00;;;5.40;;
25163;SDS011;13440;50.860;13.662;2023-06-10T13:50:30;6.20;;;5.38;;
25163;SDS011;13440;50.860;13.662;2023-06-10T13:52:56;8.05;;;5.75;;
25163;SDS011;13440;50.860;13.662;2023-06-10T13:55:22;6.70;;;5.63;;
25163;SDS011;13440;50.860;13.662;2023-06-10T13:57:47;8.13;;;5.85;;
25163;SDS011;13440;50.860;13.662;2023-06-10T14:00:12;6.68;;;5.50;;
25163;SDS011;13440;50.860;13.662;2023-06-10T14:02:39;5.85;;;5.22;;
25163;SDS011;13440;50.860;13.662;2023-06-10T14:05:05;8.25;;;5.25;;
25163;SDS011;13440;50.860;13.662;2023-06-10T14:07:30;5.57;;;4.68;;
25163;SDS011;13440;50.860;13.662;2023-06-10T14:09:56;6.25;;;5.20;;
25163;SDS011;13440;50.860;13.662;2023-06-10T14:12:21;7.57;;;5.45;;
25163;SDS011;13440;50.860;13.662;2023-06-10T14:14:47;10.70;;;5.28;;
25163;SDS011;13440;50.860;13.662;2023-06-10T14:17:12;6.22;;;5.40;;
25163;SDS011;13440;50.860;13.662;2023-06-10T14:19:37;5.95;;;5.18;;
25163;SDS011;13440;50.860;13.662;2023-06-10T14:22:05;6.30;;;4.90;;
25163;SDS011;13440;50.860;13.662;2023-06-10T14:24:31;6.00;;;5.07;;
25163;SDS011;13440;50.860;13.662;2023-06-10T14:26:57;7.03;;;5.40;;
25163;SDS011;13440;50.860;13.662;2023-06-10T14:29:23;7.90;;;5.28;;
25163;SDS011;13440;50.860;13.662;2023-06-10T14:31:48;6.38;;;4.55;;
25163;SDS011;13440;50.860;13.662;2023-06-10T14:34:14;7.15;;;4.70;;
25163;SDS011;13440;50.860;13.662;2023-06-10T14:36:40;7.38;;;4.70;;
25163;SDS011;13440;50.860;13.662;2023-06-10T14:39:05;6.75;;;4.72;;
25163;SDS011;13440;50.860;13.662;2023-06-10T14:41:31;7.15;;;4.70;;